createdAt,value
2022-12-26T00:02:03.721Z,100855.13
2022-12-26T00:04:51.869Z,100861.41
2022-12-26T00:07:17.109Z,100875.59
2022-12-26T00:09:43.930Z,100861.72
2022-12-26T00:12:10.453Z,100852.53
2022-12-26T00:14:36.979Z,100842.88
2022-12-26T00:17:03.456Z,100840.59
2022-12-26T00:19:29.923Z,100841.78
2022-12-26T00:21:57.527Z,100850.84
2022-12-26T00:24:24.000Z,100853.69
2022-12-26T00:26:50.421Z,100862.28
2022-12-26T00:29:16.876Z,100865.44
2022-12-26T00:31:43.359Z,100853.84
2022-12-26T00:34:10.154Z,100855.50
2022-12-26T00:36:37.462Z,100854.75
2022-12-26T00:39:04.342Z,100842.06
2022-12-26T00:41:31.121Z,100836.94
2022-12-26T00:43:57.968Z,100843.25
2022-12-26T00:46:25.887Z,100843.72
2022-12-26T00:48:52.747Z,100846.59
2022-12-26T00:51:19.433Z,100853.63
2022-12-26T00:53:46.368Z,100859.06
2022-12-26T00:56:13.011Z,100862.66
2022-12-26T00:58:40.550Z,100853.03
2022-12-26T01:01:16.868Z,100843.06
2022-12-26T01:03:44.839Z,100847.44
2022-12-26T01:06:11.541Z,100847.13
2022-12-26T01:08:38.443Z,100851.78
2022-12-26T01:11:13.397Z,100844.09
2022-12-26T01:13:40.031Z,100838.66
2022-12-26T01:16:07.690Z,100851.94
2022-12-26T01:18:34.972Z,100857.78
2022-12-26T01:21:05.074Z,100865.16
2022-12-26T01:23:31.609Z,100864.13
2022-12-26T01:26:17.291Z,100869.25
2022-12-26T01:28:50.417Z,100885.94
2022-12-26T01:31:18.117Z,100882.50
2022-12-26T01:33:44.828Z,100882.16
2022-12-26T01:36:11.421Z,100880.66
2022-12-26T01:38:38.196Z,100868.00
2022-12-26T01:41:17.293Z,100858.34
2022-12-26T01:43:57.830Z,100863.47
2022-12-26T01:46:30.100Z,100865.53
2022-12-26T01:49:00.930Z,100866.00
2022-12-26T01:51:33.215Z,100862.53
2022-12-26T01:54:38.289Z,100857.53
2022-12-26T01:56:51.313Z,100860.25
2022-12-26T01:59:21.643Z,100854.97
2022-12-26T02:01:50.754Z,100859.63
2022-12-26T02:04:41.028Z,100870.16
2022-12-26T02:07:07.724Z,100871.34
2022-12-26T02:09:34.962Z,100855.84
2022-12-26T02:12:36.485Z,100856.28
2022-12-26T02:14:57.643Z,100860.19
2022-12-26T02:17:25.961Z,100863.81
2022-12-26T02:20:01.988Z,100873.13
2022-12-26T02:22:47.130Z,100871.19
2022-12-26T02:25:47.526Z,100871.31
2022-12-26T02:28:35.917Z,100877.16
2022-12-26T02:31:17.706Z,100886.63
2022-12-26T02:34:09.528Z,100889.31
2022-12-26T02:37:06.010Z,100891.00
2022-12-26T02:39:43.610Z,100882.38
2022-12-26T02:42:48.320Z,100878.63
2022-12-26T02:45:43.493Z,100877.88
2022-12-26T02:48:15.251Z,100874.81
2022-12-26T02:51:14.528Z,100876.06
2022-12-26T02:54:17.554Z,100875.28
2022-12-26T02:57:08.316Z,100869.97
2022-12-26T03:00:16.781Z,100872.69
2022-12-26T03:03:08.115Z,100874.66
2022-12-26T03:05:58.172Z,100878.97
2022-12-26T03:08:49.349Z,100879.88
2022-12-26T03:11:34.605Z,100883.34
2022-12-26T03:14:19.089Z,100884.22
2022-12-26T03:17:09.529Z,100880.00
2022-12-26T03:19:58.104Z,100880.78
2022-12-26T03:22:32.776Z,100879.25
2022-12-26T03:25:21.113Z,100871.56
2022-12-26T03:27:47.674Z,100876.19
2022-12-26T03:30:33.040Z,100880.09
2022-12-26T03:32:59.570Z,100881.34
2022-12-26T03:35:30.616Z,100878.63
2022-12-26T03:38:04.641Z,100885.66
2022-12-26T03:41:09.308Z,100889.56
2022-12-26T03:44:45.197Z,100887.31
2022-12-26T03:47:52.465Z,100886.56
2022-12-26T03:50:51.712Z,100884.28
2022-12-26T03:53:43.111Z,100887.00
2022-12-26T03:56:57.112Z,100889.81
2022-12-26T03:59:46.111Z,100891.78
2022-12-26T04:02:33.119Z,100888.75
2022-12-26T04:05:22.893Z,100890.69
2022-12-26T04:08:18.717Z,100895.03
2022-12-26T04:11:09.159Z,100895.78
2022-12-26T04:14:17.457Z,100897.75
2022-12-26T04:17:11.924Z,100897.44
2022-12-26T04:19:54.345Z,100899.38
2022-12-26T04:23:01.561Z,100902.53
2022-12-26T04:25:51.946Z,100894.41
2022-12-26T04:28:39.702Z,100904.91
2022-12-26T04:31:35.840Z,100900.69
2022-12-26T04:34:27.790Z,100906.53
2022-12-26T04:37:20.089Z,100903.84
2022-12-26T04:40:09.411Z,100903.53
2022-12-26T04:42:56.303Z,100905.78
2022-12-26T04:45:23.586Z,100901.56
2022-12-26T04:48:10.075Z,100902.00
2022-12-26T04:50:36.651Z,100903.94
2022-12-26T04:53:03.185Z,100899.28
2022-12-26T04:55:32.214Z,100903.63
2022-12-26T04:57:59.661Z,100903.94
2022-12-26T05:00:28.352Z,100907.53
2022-12-26T05:03:19.132Z,100899.41
2022-12-26T05:06:14.795Z,100906.34
2022-12-26T05:09:02.734Z,100910.69
2022-12-26T05:11:31.582Z,100915.34
2022-12-26T05:13:58.637Z,100912.31
2022-12-26T05:16:45.786Z,100908.09
2022-12-26T05:19:33.550Z,100909.16
2022-12-26T05:22:20.563Z,100911.56
2022-12-26T05:25:06.465Z,100911.22
2022-12-26T05:27:57.451Z,100909.28
2022-12-26T05:30:24.340Z,100910.16
2022-12-26T05:33:09.657Z,100905.50
2022-12-26T05:35:36.401Z,100906.25
2022-12-26T05:38:03.628Z,100901.72
2022-12-26T05:40:30.538Z,100911.03
2022-12-26T05:42:57.182Z,100906.38
2022-12-26T05:45:23.661Z,100916.44
2022-12-26T05:47:52.174Z,100914.50
2022-12-26T05:50:18.987Z,100909.41
2022-12-26T05:52:45.531Z,100910.34
2022-12-26T05:55:12.069Z,100911.31
2022-12-26T05:57:38.591Z,100906.09
2022-12-26T06:00:05.614Z,100904.25
2022-12-26T06:02:32.234Z,100895.72
2022-12-26T06:04:58.925Z,100894.63
2022-12-26T06:07:25.384Z,100901.28
2022-12-26T06:09:51.887Z,100914.03
2022-12-26T06:12:18.358Z,100916.81
2022-12-26T06:14:44.859Z,100907.53
2022-12-26T06:17:11.348Z,100909.56
2022-12-26T06:19:44.618Z,100914.28
2022-12-26T06:22:13.066Z,100912.38
2022-12-26T06:24:39.515Z,100913.59
2022-12-26T06:27:06.063Z,100910.16
2022-12-26T06:29:32.569Z,100908.69
2022-12-26T06:31:59.133Z,100911.88
2022-12-26T06:34:27.325Z,100913.09
2022-12-26T06:36:55.392Z,100912.09
2022-12-26T06:39:22.822Z,100915.72
2022-12-26T06:41:49.380Z,100920.13
2022-12-26T06:44:18.499Z,100919.06
2022-12-26T06:46:46.052Z,100919.69
2022-12-26T06:49:12.754Z,100932.22
2022-12-26T06:51:39.288Z,100944.75
2022-12-26T06:54:05.839Z,100948.84
2022-12-26T06:56:33.297Z,100952.94
2022-12-26T06:59:01.976Z,100958.19
2022-12-26T07:01:30.944Z,100956.41
2022-12-26T07:03:57.773Z,100948.09
2022-12-26T07:06:29.265Z,100962.75
2022-12-26T07:09:01.457Z,100955.63
2022-12-26T07:11:30.676Z,100969.53
2022-12-26T07:13:57.569Z,100978.31
2022-12-26T07:16:24.577Z,100983.25
2022-12-26T07:18:55.893Z,100988.25
2022-12-26T07:21:26.477Z,100998.22
2022-12-26T07:23:54.451Z,101002.44
2022-12-26T07:26:22.249Z,100995.84
2022-12-26T07:28:48.949Z,100997.34
2022-12-26T07:31:17.409Z,100988.72
2022-12-26T07:33:47.293Z,100995.66
2022-12-26T07:36:15.278Z,100997.94
2022-12-26T07:38:41.844Z,101004.13
2022-12-26T07:41:26.946Z,100995.22
2022-12-26T07:43:58.333Z,100983.75
2022-12-26T07:46:24.857Z,100981.66
2022-12-26T07:48:51.386Z,100989.31
2022-12-26T07:51:20.216Z,100987.81
2022-12-26T07:53:46.721Z,100983.13
2022-12-26T07:56:13.227Z,100984.63
2022-12-26T07:58:39.763Z,100976.94
2022-12-26T08:01:06.870Z,100973.00
2022-12-26T08:03:34.431Z,100973.00
2022-12-26T08:06:01.368Z,100965.63
2022-12-26T08:08:27.808Z,100962.88
2022-12-26T08:11:05.800Z,100955.94
2022-12-26T08:13:32.734Z,100953.06
2022-12-26T08:16:00.672Z,100947.66
2022-12-26T08:18:27.135Z,100948.41
2022-12-26T08:20:53.688Z,100940.25
2022-12-26T08:23:20.544Z,100943.72
2022-12-26T08:25:47.281Z,100934.63
2022-12-26T08:28:13.882Z,100940.06
2022-12-26T08:30:41.427Z,100931.50
2022-12-26T08:33:09.361Z,100945.84
2022-12-26T08:35:36.864Z,100939.66
2022-12-26T08:38:04.011Z,100964.38
2022-12-26T08:40:42.683Z,100966.38
2022-12-26T08:46:11.752Z,100967.44
2022-12-26T08:48:42.003Z,100970.16
2022-12-26T08:51:12.731Z,100984.03
2022-12-26T08:53:41.503Z,100990.53
2022-12-26T08:56:11.547Z,100993.25
2022-12-26T08:58:38.060Z,100987.81
2022-12-26T09:01:07.901Z,100987.34
2022-12-26T09:03:34.648Z,100981.44
2022-12-26T09:06:05.832Z,100992.31
2022-12-26T09:08:34.847Z,100987.66
2022-12-26T09:11:09.179Z,100990.34
2022-12-26T09:13:36.533Z,100988.84
2022-12-26T09:16:06.244Z,100995.03
2022-12-26T09:18:32.857Z,101008.63
2022-12-26T09:21:01.019Z,101011.53
2022-12-26T09:23:28.816Z,101011.53
2022-12-26T09:25:55.641Z,101025.28
2022-12-26T09:28:22.503Z,101017.53
2022-12-26T09:30:49.203Z,101013.03
2022-12-26T09:33:15.710Z,101020.88
2022-12-26T09:35:42.590Z,101024.50
2022-12-26T09:38:09.101Z,101021.19
2022-12-26T09:40:51.230Z,101026.31
2022-12-26T09:43:27.833Z,101026.75
2022-12-26T09:46:07.028Z,101024.19
2022-12-26T09:48:43.226Z,101019.69
2022-12-26T09:51:10.742Z,101011.19
2022-12-26T09:53:41.844Z,101024.50
2022-12-26T09:56:23.798Z,101024.16
2022-12-26T09:59:05.628Z,101026.59
2022-12-26T10:01:35.284Z,101026.59
2022-12-26T10:04:08.316Z,101026.28
2022-12-26T10:06:41.799Z,101032.94
2022-12-26T10:09:30.043Z,101023.28
2022-12-26T10:12:05.596Z,101026.00
2022-12-26T10:14:50.399Z,101024.47
2022-12-26T10:17:19.615Z,101015.56
2022-12-26T10:19:46.262Z,101011.34
2022-12-26T10:22:31.590Z,101018.75
2022-12-26T10:25:01.510Z,101014.06
2022-12-26T10:27:31.973Z,101007.09
2022-12-26T10:30:03.325Z,101004.41
2022-12-26T10:32:36.630Z,101009.38
2022-12-26T10:35:29.769Z,101002.75
2022-12-26T10:38:02.176Z,100997.31
2022-12-26T10:40:35.837Z,100994.13
2022-12-26T10:43:22.043Z,100997.63
2022-12-26T10:46:11.187Z,100985.22
2022-12-26T10:48:37.800Z,100990.94
2022-12-26T10:51:04.851Z,100978.59
2022-12-26T10:53:31.533Z,100990.53
2022-12-26T10:56:00.603Z,100979.22
2022-12-26T10:58:34.491Z,100987.06
2022-12-26T11:01:30.990Z,100986.59
2022-12-26T11:04:00.700Z,100990.81
2022-12-26T11:06:40.821Z,100990.38
2022-12-26T11:09:25.000Z,100981.03
2022-12-26T11:11:54.245Z,100974.38
2022-12-26T11:14:33.681Z,100975.59
2022-12-26T11:17:32.085Z,100974.38
2022-12-26T11:20:17.051Z,100971.94
2022-12-26T11:22:44.743Z,100978.16
2022-12-26T11:25:17.096Z,100978.16
2022-12-26T11:27:52.998Z,100968.03
2022-12-26T11:30:29.201Z,100952.50
2022-12-26T11:33:34.084Z,100953.97
2022-12-26T11:36:09.419Z,100962.44
2022-12-26T11:38:47.641Z,100955.47
2022-12-26T11:41:40.159Z,100956.56
2022-12-26T11:44:09.378Z,100953.09
2022-12-26T11:46:59.297Z,100952.34
2022-12-26T11:49:40.339Z,100956.56
2022-12-26T11:52:34.922Z,100958.06
2022-12-26T11:55:02.266Z,100957.59
2022-12-26T11:57:33.405Z,100948.69
2022-12-26T12:00:22.092Z,100949.44
2022-12-26T12:02:49.071Z,100942.84
2022-12-26T12:05:23.352Z,100949.44
2022-12-26T12:08:06.517Z,100926.06
2022-12-26T12:10:48.289Z,100938.88
2022-12-26T12:13:21.343Z,100928.31
2022-12-26T12:16:09.529Z,100922.13
2022-12-26T12:18:59.304Z,100926.34
2022-12-26T12:21:38.611Z,100908.84
2022-12-26T12:24:18.820Z,100907.31
2022-12-26T12:27:19.227Z,100903.41
2022-12-26T12:29:57.831Z,100895.53
2022-12-26T12:32:45.259Z,100883.91
2022-12-26T12:35:30.310Z,100881.97
2022-12-26T12:38:34.502Z,100882.72
2022-12-26T12:41:28.349Z,100878.78
2022-12-26T12:44:21.380Z,100869.88
2022-12-26T12:46:59.156Z,100873.34
2022-12-26T12:49:31.649Z,100885.69
2022-12-26T12:52:46.492Z,100881.81
2022-12-26T12:55:22.152Z,100886.03
2022-12-26T12:58:04.566Z,100883.31
2022-12-26T13:00:55.951Z,100890.97
2022-12-26T13:03:32.890Z,100892.50
2022-12-26T13:06:16.536Z,100885.53
2022-12-26T13:08:55.280Z,100891.72
2022-12-26T13:11:45.855Z,100899.47
2022-12-26T13:14:20.499Z,100892.50
2022-12-26T13:16:54.136Z,100889.03
2022-12-26T13:19:26.284Z,100889.34
2022-12-26T13:21:56.686Z,100884.66
2022-12-26T13:24:48.289Z,100879.22
2022-12-26T13:27:22.651Z,100891.13
2022-12-26T13:29:49.936Z,100884.94
2022-12-26T13:32:22.300Z,100894.63
2022-12-26T13:34:50.088Z,100893.84
2022-12-26T13:37:38.522Z,100894.63
2022-12-26T13:40:11.263Z,100892.66
2022-12-26T13:42:58.860Z,100900.06
2022-12-26T13:45:37.361Z,100894.19
2022-12-26T13:48:27.350Z,100903.06
2022-12-26T13:50:56.465Z,100906.53
2022-12-26T13:53:26.173Z,100903.06
2022-12-26T13:55:57.722Z,100901.84
2022-12-26T13:58:58.721Z,100898.66
2022-12-26T14:01:46.446Z,100911.50
2022-12-26T14:04:57.413Z,100906.06
2022-12-26T14:07:26.685Z,100905.31
2022-12-26T14:10:09.829Z,100920.88
2022-12-26T14:12:42.249Z,100923.16
2022-12-26T14:15:22.349Z,100936.31
2022-12-26T14:18:20.575Z,100949.16
2022-12-26T14:21:00.330Z,100968.19
2022-12-26T14:23:48.534Z,100984.50
2022-12-26T14:26:33.110Z,100987.22
2022-12-26T14:29:20.008Z,100991.91
2022-12-26T14:32:40.348Z,100997.34
2022-12-26T14:35:47.113Z,101016.38
2022-12-26T14:38:34.687Z,101019.84
2022-12-26T14:41:06.153Z,101028.00
2022-12-26T14:43:32.839Z,101038.88
2022-12-26T14:46:00.260Z,101040.50
2022-12-26T14:48:26.713Z,101056.38
2022-12-26T14:51:16.231Z,101066.50
2022-12-26T14:53:45.018Z,101066.19
2022-12-26T14:56:18.002Z,101067.84
2022-12-26T14:58:48.308Z,101074.22
2022-12-26T15:01:20.893Z,101084.34
2022-12-26T15:03:59.473Z,101097.59
2022-12-26T15:06:47.668Z,101105.00
2022-12-26T15:09:20.367Z,101097.72
2022-12-26T15:12:14.113Z,101110.16
2022-12-26T15:15:18.522Z,101119.47
2022-12-26T15:18:26.690Z,101126.47
2022-12-26T15:21:16.240Z,101138.50
2022-12-26T15:23:48.964Z,101138.09
2022-12-26T15:26:34.289Z,101148.50
2022-12-26T15:29:19.206Z,101167.53
2022-12-26T15:31:45.695Z,101171.00
2022-12-26T15:34:30.157Z,101169.78
2022-12-26T15:37:07.290Z,101176.78
2022-12-26T15:39:49.592Z,101188.41
2022-12-26T15:42:37.646Z,101179.78
2022-12-26T15:45:28.797Z,101192.50
2022-12-26T15:48:23.407Z,101189.78
2022-12-26T15:51:11.176Z,101193.97
2022-12-26T15:53:51.218Z,101192.03
2022-12-26T15:56:41.861Z,101194.72
2022-12-26T15:59:23.552Z,101200.47
2022-12-26T16:01:53.311Z,101205.91
2022-12-26T16:04:30.879Z,101216.38
2022-12-26T16:07:09.047Z,101209.72
2022-12-26T16:09:46.579Z,101211.97
2022-12-26T16:12:35.300Z,101211.22
2022-12-26T16:15:15.305Z,101215.47
2022-12-26T16:17:42.599Z,101217.72
2022-12-26T16:20:42.690Z,101234.03
2022-12-26T16:23:16.279Z,101244.94
2022-12-26T16:25:56.887Z,101237.53
2022-12-26T16:28:31.225Z,101237.84
2022-12-26T16:30:58.718Z,101240.56
2022-12-26T16:33:26.072Z,101254.16
2022-12-26T16:35:57.540Z,101252.94
2022-12-26T16:38:31.427Z,101246.31
2022-12-26T16:41:00.349Z,101258.38
2022-12-26T16:43:29.277Z,101251.75
2022-12-26T16:46:00.496Z,101254.78
2022-12-26T16:48:29.506Z,101260.97
2022-12-26T16:51:02.403Z,101263.25
2022-12-26T16:53:34.794Z,101267.47
2022-12-26T16:56:10.341Z,101267.75
2022-12-26T16:58:37.678Z,101272.91
2022-12-26T17:01:13.159Z,101277.59
2022-12-26T17:03:51.246Z,101277.16
2022-12-26T17:06:42.409Z,101276.41
2022-12-26T17:09:12.825Z,101275.19
2022-12-26T17:11:56.027Z,101282.59
2022-12-26T17:14:28.141Z,101286.06
2022-12-26T17:17:04.414Z,101294.97
2022-12-26T17:19:33.391Z,101291.50
2022-12-26T17:22:11.763Z,101293.78
2022-12-26T17:24:38.342Z,101291.06
2022-12-26T17:27:17.493Z,101296.50
2022-12-26T17:29:47.966Z,101304.66
2022-12-26T17:32:20.613Z,101301.94
2022-12-26T17:34:51.720Z,101310.09
2022-12-26T17:37:28.342Z,101298.44
2022-12-26T17:40:05.917Z,101313.59
2022-12-26T17:42:45.160Z,101312.81
2022-12-26T17:45:17.586Z,101322.03
2022-12-26T17:47:44.113Z,101324.00
2022-12-26T17:50:11.113Z,101320.53
2022-12-26T17:52:38.311Z,101322.03
2022-12-26T17:55:15.765Z,101322.78
2022-12-26T17:57:44.297Z,101324.75
2022-12-26T18:00:22.973Z,101323.53
2022-12-26T18:02:56.437Z,101328.22
2022-12-26T18:05:23.486Z,101329.75
2022-12-26T18:07:52.033Z,101331.69
2022-12-26T18:10:24.397Z,101329.31
2022-12-26T18:12:52.707Z,101325.50
2022-12-26T18:15:20.078Z,101333.53
2022-12-26T18:17:48.897Z,101338.25
2022-12-26T18:20:28.135Z,101341.69
2022-12-26T18:22:54.787Z,101357.28
2022-12-26T18:25:24.361Z,101363.75
2022-12-26T18:27:51.966Z,101363.44
2022-12-26T18:30:25.319Z,101369.22
2022-12-26T18:32:52.849Z,101361.03
2022-12-26T18:35:19.748Z,101364.53
2022-12-26T18:37:49.660Z,101371.50
2022-12-26T18:40:39.369Z,101366.47
2022-12-26T18:43:15.937Z,101371.50
2022-12-26T18:45:43.206Z,101367.69
2022-12-26T18:48:14.633Z,101369.97
2022-12-26T18:53:07.629Z,101374.97
2022-12-26T18:55:37.091Z,101376.94
2022-12-26T18:58:06.871Z,101385.13
2022-12-26T19:00:38.196Z,101381.16
2022-12-26T19:03:07.117Z,101393.56
2022-12-26T19:05:40.391Z,101392.81
2022-12-26T19:08:06.890Z,101384.63
2022-12-26T19:10:47.342Z,101400.97
2022-12-26T19:13:17.424Z,101408.38
2022-12-26T19:15:49.250Z,101416.09
2022-12-26T19:18:15.894Z,101423.50
2022-12-26T19:20:47.131Z,101428.47
2022-12-26T19:23:19.003Z,101433.63
2022-12-26T19:25:45.459Z,101438.59
2022-12-26T19:28:19.558Z,101439.81
2022-12-26T19:30:46.106Z,101437.09
2022-12-26T19:33:12.620Z,101447.53
2022-12-26T19:35:39.189Z,101447.53
2022-12-26T19:38:05.614Z,101451.44
2022-12-26T19:40:32.210Z,101457.66
2022-12-26T19:42:58.736Z,101461.91
2022-12-26T19:45:27.089Z,101456.91
2022-12-26T19:47:53.608Z,101459.19
2022-12-26T19:50:20.111Z,101454.16
2022-12-26T19:52:46.685Z,101457.66
2022-12-26T19:55:13.198Z,101467.38
2022-12-26T19:57:39.733Z,101470.09
2022-12-26T20:00:06.938Z,101470.09
2022-12-26T20:02:33.563Z,101465.81
2022-12-26T20:05:00.101Z,101466.56
2022-12-26T20:07:26.607Z,101475.53
2022-12-26T20:09:53.076Z,101464.63
2022-12-26T20:12:19.579Z,101466.56
2022-12-26T20:14:46.058Z,101464.31
2022-12-26T20:17:13.568Z,101479.72
2022-12-26T20:19:40.210Z,101480.50
2022-12-26T20:22:07.438Z,101478.97
2022-12-26T20:24:34.718Z,101481.69
2022-12-26T20:27:02.362Z,101491.84
2022-12-26T20:29:29.000Z,101489.13
2022-12-26T20:31:55.467Z,101498.78
2022-12-26T20:34:22.320Z,101498.03
2022-12-26T20:36:48.852Z,101498.03
2022-12-26T20:39:17.708Z,101507.69
2022-12-26T20:41:45.035Z,101503.03
2022-12-26T20:44:13.830Z,101515.41
2022-12-26T20:46:41.884Z,101519.34
2022-12-26T20:49:09.800Z,101519.34
2022-12-26T20:51:38.563Z,101515.41
2022-12-26T20:54:07.016Z,101522.81
2022-12-26T20:56:34.663Z,101532.50
2022-12-26T20:59:01.221Z,101525.56
2022-12-26T21:01:28.465Z,101533.28
2022-12-26T21:03:56.659Z,101533.28
2022-12-26T21:06:23.776Z,101539.47
2022-12-26T21:08:51.826Z,101534.03
2022-12-26T21:11:33.468Z,101541.00
2022-12-26T21:14:05.654Z,101540.22
2022-12-26T21:16:42.732Z,101544.91
2022-12-26T21:19:15.444Z,101549.91
2022-12-26T21:21:44.778Z,101555.78
2022-12-26T21:24:33.049Z,101564.72
2022-12-26T21:26:59.671Z,101562.75
2022-12-26T21:29:32.317Z,101560.03
2022-12-26T21:32:00.390Z,101561.25
2022-12-26T21:34:29.696Z,101568.97
2022-12-26T21:37:15.911Z,101578.31
2022-12-26T21:39:43.111Z,101574.09
2022-12-26T21:42:10.098Z,101578.66
2022-12-26T21:44:37.020Z,101573.66
2022-12-26T21:47:05.736Z,101581.03
2022-12-26T21:49:32.290Z,101575.59
2022-12-26T21:51:58.804Z,101572.13
2022-12-26T21:54:48.573Z,101583.00
2022-12-26T21:57:16.270Z,101577.56
2022-12-26T21:59:58.159Z,101582.25
2022-12-26T22:02:52.471Z,101578.00
2022-12-26T22:05:21.674Z,101593.13
2022-12-26T22:07:51.683Z,101590.84
2022-12-26T22:10:36.840Z,101594.34
2022-12-26T22:13:04.254Z,101607.19
2022-12-26T22:15:49.631Z,101606.41
2022-12-26T22:18:16.197Z,101613.38
2022-12-26T22:20:44.625Z,101624.28
2022-12-26T22:23:12.081Z,101625.78
2022-12-26T22:25:38.695Z,101616.09
2022-12-26T22:28:05.502Z,101621.53
2022-12-26T22:30:31.946Z,101637.13
2022-12-26T22:32:58.426Z,101634.06
2022-12-26T22:35:24.937Z,101628.31
2022-12-26T22:37:51.387Z,101629.97
2022-12-26T22:40:17.929Z,101625.38
2022-12-26T22:42:44.408Z,101620.53
2022-12-26T22:45:11.045Z,101630.75
2022-12-26T22:47:37.496Z,101625.88
2022-12-26T22:50:04.183Z,101628.72
2022-12-26T22:52:30.692Z,101633.84
2022-12-26T22:54:57.213Z,101637.13
2022-12-26T22:57:23.717Z,101637.22
2022-12-26T23:02:36.884Z,101641.06
2022-12-26T23:05:04.650Z,101647.81
2022-12-26T23:07:31.529Z,101646.84
2022-12-26T23:09:58.363Z,101642.25
2022-12-26T23:12:43.238Z,101645.97
2022-12-26T23:15:17.651Z,101647.72
2022-12-26T23:18:07.562Z,101647.06
2022-12-26T23:20:55.978Z,101646.09
2022-12-26T23:23:23.068Z,101650.44
2022-12-26T23:25:49.626Z,101654.88
2022-12-26T23:28:34.843Z,101656.06
2022-12-26T23:31:03.492Z,101651.63
2022-12-26T23:33:31.999Z,101650.97
2022-12-26T23:35:58.749Z,101650.31
2022-12-26T23:38:25.660Z,101662.81
2022-12-26T23:40:52.159Z,101657.44
2022-12-26T23:43:18.897Z,101659.53
2022-12-26T23:45:45.753Z,101661.91
2022-12-26T23:48:12.496Z,101663.53
2022-12-26T23:50:39.657Z,101657.44
2022-12-26T23:53:06.286Z,101650.91
2022-12-26T23:55:33.385Z,101653.63
2022-12-26T23:57:59.851Z,101668.09
